Time;durP1;ratioP1;P1;durP2;ratioP2;P2;SDS_P1;SDS_P2;PMS_P1;PMS_P2;Temp;Humidity;BMP_temperature;BMP_pressure;BME280_temperature;BME280_humidity;BME280_pressure;Samples;Min_cycle;Max_cycle;Signal;HPM_P1;HPM_P2
2023/02/11 00:01:08;;;;;;;40.45;23.77;;;;;;;;;;5047631;28;20064;-83
2023/02/11 00:03:35;;;;;;;41.13;23.88;;;;;;;;;;5064584;28;20157;-83
2023/02/11 00:06:04;;;;;;;40.80;24.33;;;;;;;;;;5047776;28;20131;-83
2023/02/11 00:08:31;;;;;;;42.40;23.63;;;;;;;;;;5061459;28;20089;-83
2023/02/11 00:10:59;;;;;;;43.10;23.80;;;;;;;;;;5081248;28;20043;-83
2023/02/11 00:13:26;;;;;;;40.92;23.90;;;;;;;;;;5050532;28;20083;-83
2023/02/11 00:15:56;;;;;;;37.58;23.38;;;;;;;;;;5065445;28;20505;-84
2023/02/11 00:18:23;;;;;;;39.88;24.23;;;;;;;;;;5062512;28;20075;-83
2023/02/11 00:20:51;;;;;;;41.65;23.48;;;;;;;;;;5063532;28;20105;-83
2023/02/11 00:23:18;;;;;;;44.45;23.73;;;;;;;;;;5045889;28;20088;-84
2023/02/11 00:25:46;;;;;;;42.55;23.20;;;;;;;;;;5063629;28;20045;-83
2023/02/11 00:28:13;;;;;;;39.75;22.08;;;;;;;;;;5046487;28;20045;-84
2023/02/11 00:30:40;;;;;;;34.28;21.98;;;;;;;;;;5063548;28;20048;-83
2023/02/11 00:33:08;;;;;;;38.83;22.80;;;;;;;;;;5046740;28;20053;-84
2023/02/11 00:35:37;;;;;;;38.40;22.55;;;;;;;;;;5046388;28;20041;-84
2023/02/11 00:38:04;;;;;;;35.72;22.17;;;;;;;;;;5045916;28;20052;-83
2023/02/11 00:40:31;;;;;;;37.30;21.48;;;;;;;;;;5046035;28;20053;-84
2023/02/11 00:42:59;;;;;;;36.60;21.88;;;;;;;;;;5045663;28;20132;-84
2023/02/11 00:45:27;;;;;;;36.03;22.52;;;;;;;;;;5046014;28;20132;-84
2023/02/11 00:47:54;;;;;;;39.50;23.17;;;;;;;;;;5045901;28;20382;-84
2023/02/11 00:50:22;;;;;;;35.92;21.92;;;;;;;;;;5045106;28;20083;-84
2023/02/11 00:52:49;;;;;;;41.00;23.75;;;;;;;;;;5063176;28;20051;-84
2023/02/11 00:55:17;;;;;;;38.55;23.40;;;;;;;;;;5045537;28;20163;-83
2023/02/11 00:57:44;;;;;;;39.65;22.98;;;;;;;;;;5044433;28;20110;-84
2023/02/11 01:00:13;;;;;;;37.20;21.80;;;;;;;;;;5045174;28;20455;-84
2023/02/11 01:02:40;;;;;;;37.78;23.27;;;;;;;;;;5045469;28;20132;-84
2023/02/11 01:05:08;;;;;;;38.03;22.10;;;;;;;;;;5046081;28;20059;-83
2023/02/11 01:07:35;;;;;;;39.88;23.25;;;;;;;;;;5045698;28;20464;-84
2023/02/11 01:10:03;;;;;;;36.38;22.05;;;;;;;;;;5046339;28;20048;-84
2023/02/11 01:12:30;;;;;;;37.00;22.05;;;;;;;;;;5046190;28;20075;-84
2023/02/11 01:15:02;;;;;;;38.17;23.42;;;;;;;;;;5047499;28;20064;-84
2023/02/11 01:17:29;;;;;;;36.92;21.75;;;;;;;;;;5063907;28;20412;-83
2023/02/11 01:19:56;;;;;;;34.97;21.63;;;;;;;;;;5046054;28;20132;-84
2023/02/11 01:22:24;;;;;;;50.00;23.10;;;;;;;;;;5046244;28;20069;-84
2023/02/11 01:24:51;;;;;;;32.63;20.75;;;;;;;;;;5046489;28;20147;-84
2023/02/11 01:27:19;;;;;;;37.47;21.48;;;;;;;;;;5030045;28;20053;-84
2023/02/11 01:29:46;;;;;;;36.10;21.23;;;;;;;;;;5045983;28;20053;-84
2023/02/11 01:32:13;;;;;;;34.65;21.17;;;;;;;;;;5063702;28;20053;-84
2023/02/11 01:34:40;;;;;;;35.15;21.70;;;;;;;;;;5046567;28;20048;-83
2023/02/11 01:37:07;;;;;;;35.45;20.67;;;;;;;;;;5062008;28;20091;-82
2023/02/11 01:39:35;;;;;;;39.95;23.02;;;;;;;;;;5051331;28;20053;-83
2023/02/11 01:42:02;;;;;;;37.67;21.58;;;;;;;;;;5045728;28;20132;-83
2023/02/11 01:44:36;;;;;;;37.55;22.17;;;;;;;;;;5045673;28;20112;-83
2023/02/11 01:47:05;;;;;;;35.00;20.67;;;;;;;;;;5044714;28;20056;-84
2023/02/11 01:49:35;;;;;;;35.55;21.25;;;;;;;;;;5046110;28;20049;-83
2023/02/11 01:52:11;;;;;;;40.28;21.30;;;;;;;;;;5046261;28;20053;-84
2023/02/11 01:57:29;;;;;;;33.85;20.85;;;;;;;;;;5062936;28;20087;-83
2023/02/11 02:00:00;;;;;;;37.10;22.42;;;;;;;;;;5049186;28;20116;-83
2023/02/11 02:02:32;;;;;;;37.15;23.02;;;;;;;;;;5060388;28;20021;-84
2023/02/11 02:05:09;;;;;;;34.58;21.45;;;;;;;;;;5056078;28;20055;-84
2023/02/11 02:07:44;;;;;;;37.85;22.23;;;;;;;;;;5064391;28;20063;-83
2023/02/11 02:10:16;;;;;;;37.08;21.80;;;;;;;;;;5044770;28;20049;-83
2023/02/11 02:12:43;;;;;;;34.75;20.77;;;;;;;;;;5043734;28;20068;-83
2023/02/11 02:15:21;;;;;;;38.85;21.08;;;;;;;;;;5061504;28;20041;-84
2023/02/11 02:17:53;;;;;;;35.92;22.60;;;;;;;;;;5043569;28;20479;-84
2023/02/11 02:20:21;;;;;;;37.17;21.17;;;;;;;;;;5044070;28;20041;-84
2023/02/11 02:22:48;;;;;;;35.20;21.25;;;;;;;;;;5043562;28;20048;-83
2023/02/11 02:25:22;;;;;;;40.63;22.67;;;;;;;;;;5043282;28;20442;-84
2023/02/11 02:28:08;;;;;;;35.83;20.70;;;;;;;;;;5042931;28;20116;-83
2023/02/11 02:30:51;;;;;;;36.17;21.88;;;;;;;;;;5049307;28;20460;-83
2023/02/11 02:33:37;;;;;;;36.22;21.80;;;;;;;;;;5046531;28;20045;-83
2023/02/11 02:36:17;;;;;;;40.17;22.13;;;;;;;;;;5046750;28;20041;-83
2023/02/11 02:38:44;;;;;;;36.67;20.88;;;;;;;;;;5064882;28;20085;-83
2023/02/11 02:41:16;;;;;;;34.97;20.20;;;;;;;;;;5048919;28;20456;-83
2023/02/11 02:43:45;;;;;;;37.00;20.42;;;;;;;;;;5043947;28;20501;-83
2023/02/11 02:46:18;;;;;;;35.10;21.17;;;;;;;;;;5061743;28;20493;-83
2023/02/11 02:48:48;;;;;;;36.60;20.50;;;;;;;;;;5059969;28;20057;-83
2023/02/11 02:51:39;;;;;;;36.38;21.33;;;;;;;;;;5043290;28;20140;-83
2023/02/11 02:54:06;;;;;;;33.85;20.75;;;;;;;;;;5044080;28;20131;-83
2023/02/11 02:56:48;;;;;;;37.42;22.50;;;;;;;;;;5060865;28;20049;-83
2023/02/11 02:59:18;;;;;;;35.20;21.42;;;;;;;;;;5042170;28;20088;-83
2023/02/11 03:01:55;;;;;;;36.00;20.75;;;;;;;;;;5043146;28;20144;-84
2023/02/11 03:04:22;;;;;;;33.70;21.50;;;;;;;;;;5043039;28;20061;-84
2023/02/11 03:06:55;;;;;;;39.35;22.80;;;;;;;;;;5043822;28;20049;-83
2023/02/11 03:09:27;;;;;;;39.35;22.00;;;;;;;;;;5060598;28;20059;-84
2023/02/11 03:11:55;;;;;;;39.50;23.42;;;;;;;;;;5043779;28;20053;-84
2023/02/11 03:14:25;;;;;;;37.42;22.80;;;;;;;;;;5042918;28;20111;-84
2023/02/11 03:16:54;;;;;;;38.53;23.27;;;;;;;;;;5042831;28;20057;-83
2023/02/11 03:19:48;;;;;;;41.25;24.33;;;;;;;;;;5042314;28;20048;-83
2023/02/11 03:22:18;;;;;;;43.50;24.13;;;;;;;;;;5059133;28;20052;-84
2023/02/11 03:24:46;;;;;;;39.40;23.23;;;;;;;;;;5043589;28;20057;-82
2023/02/11 03:27:28;;;;;;;38.25;23.17;;;;;;;;;;5060443;28;20405;-83
2023/02/11 03:30:00;;;;;;;40.40;23.40;;;;;;;;;;5046217;28;20132;-83
2023/02/11 03:32:38;;;;;;;37.83;23.10;;;;;;;;;;5045590;28;20052;-83
2023/02/11 03:35:35;;;;;;;42.40;23.42;;;;;;;;;;5064481;28;20041;-83
2023/02/11 03:38:12;;;;;;;38.28;22.80;;;;;;;;;;5052061;28;20048;-83
2023/02/11 03:40:40;;;;;;;37.88;22.95;;;;;;;;;;5064334;28;20087;-84
2023/02/11 03:43:09;;;;;;;39.13;22.65;;;;;;;;;;5047127;28;20417;-84
2023/02/11 03:45:37;;;;;;;36.38;22.95;;;;;;;;;;5065330;28;20053;-83
2023/02/11 03:48:08;;;;;;;35.58;22.73;;;;;;;;;;5064907;28;20063;-83
2023/02/11 03:50:36;;;;;;;37.92;22.52;;;;;;;;;;5065188;28;20085;-83
2023/02/11 03:53:04;;;;;;;35.92;22.10;;;;;;;;;;5063896;28;20410;-84
2023/02/11 03:55:34;;;;;;;41.20;23.60;;;;;;;;;;5061888;28;20025;-83
2023/02/11 03:58:03;;;;;;;39.83;22.85;;;;;;;;;;5063549;28;20049;-83
2023/02/11 04:00:31;;;;;;;35.95;22.08;;;;;;;;;;5047113;28;20128;-84
2023/02/11 04:02:58;;;;;;;41.63;23.83;;;;;;;;;;5046410;28;20059;-84
2023/02/11 04:05:25;;;;;;;37.30;22.30;;;;;;;;;;5045768;28;20075;-84
2023/02/11 04:07:52;;;;;;;40.78;23.58;;;;;;;;;;5063130;28;20135;-84
2023/02/11 04:10:20;;;;;;;40.92;23.05;;;;;;;;;;5047200;28;20041;-84
2023/02/11 04:12:47;;;;;;;41.20;24.40;;;;;;;;;;5007926;28;1084789;-83
2023/02/11 04:15:14;;;;;;;41.58;24.83;;;;;;;;;;5046175;28;20051;-84
2023/02/11 04:17:42;;;;;;;42.10;22.90;;;;;;;;;;5063765;28;20057;-84
2023/02/11 04:20:10;;;;;;;38.30;23.27;;;;;;;;;;5045968;28;20051;-84
2023/02/11 04:22:37;;;;;;;39.47;23.98;;;;;;;;;;5046189;28;20452;-84
2023/02/11 04:25:05;;;;;;;36.58;23.00;;;;;;;;;;5046879;28;20128;-84
2023/02/11 04:27:32;;;;;;;37.08;23.13;;;;;;;;;;5064354;28;20057;-83
2023/02/11 04:30:00;;;;;;;39.72;23.95;;;;;;;;;;5046217;28;20045;-83
2023/02/11 04:32:27;;;;;;;41.88;23.92;;;;;;;;;;5046118;28;20049;-84
2023/02/11 04:34:54;;;;;;;38.33;22.70;;;;;;;;;;5046536;28;20059;-84
2023/02/11 04:37:22;;;;;;;37.78;24.08;;;;;;;;;;5043500;28;20121;-83
2023/02/11 04:39:49;;;;;;;38.22;23.30;;;;;;;;;;5043007;28;20045;-83
2023/02/11 04:42:16;;;;;;;36.53;23.17;;;;;;;;;;5044431;28;20432;-83
2023/02/11 04:44:43;;;;;;;39.53;24.17;;;;;;;;;;5062596;28;20063;-84
2023/02/11 04:47:14;;;;;;;39.65;23.52;;;;;;;;;;5045577;28;20500;-83
2023/02/11 04:49:41;;;;;;;38.92;23.70;;;;;;;;;;5045360;28;20053;-83
2023/02/11 04:52:09;;;;;;;37.75;23.33;;;;;;;;;;5063397;28;20053;-83
2023/02/11 04:54:36;;;;;;;38.53;22.77;;;;;;;;;;5045991;28;20049;-83
2023/02/11 04:57:03;;;;;;;45.53;26.08;;;;;;;;;;5063809;28;20041;-83
2023/02/11 04:59:30;;;;;;;40.10;24.10;;;;;;;;;;5045150;28;20160;-84
2023/02/11 05:01:58;;;;;;;47.05;27.35;;;;;;;;;;5044631;28;20496;-83
2023/02/11 05:04:25;;;;;;;41.45;25.95;;;;;;;;;;5044643;28;20053;-83
2023/02/11 05:06:52;;;;;;;43.50;25.95;;;;;;;;;;5044403;28;20045;-83
2023/02/11 05:09:19;;;;;;;47.90;26.08;;;;;;;;;;5044263;28;20513;-83
2023/02/11 05:11:47;;;;;;;69.72;32.08;;;;;;;;;;5044630;28;20056;-83
2023/02/11 05:14:14;;;;;;;42.92;25.80;;;;;;;;;;5062247;28;20088;-83
2023/02/11 05:16:41;;;;;;;44.08;26.15;;;;;;;;;;5044385;28;20068;-83
2023/02/11 05:19:08;;;;;;;43.05;26.52;;;;;;;;;;5044831;28;20044;-83
2023/02/11 05:21:36;;;;;;;42.03;25.45;;;;;;;;;;5044454;28;20049;-83
2023/02/11 05:24:03;;;;;;;42.88;25.92;;;;;;;;;;5044861;28;20113;-82
2023/02/11 05:26:30;;;;;;;70.30;32.58;;;;;;;;;;5044838;28;20064;-83
2023/02/11 05:28:57;;;;;;;86.32;31.75;;;;;;;;;;5044328;28;20113;-83
2023/02/11 05:31:25;;;;;;;44.00;25.77;;;;;;;;;;5044288;28;20052;-83
2023/02/11 05:33:52;;;;;;;49.97;27.15;;;;;;;;;;5044805;28;20056;-83
2023/02/11 05:36:19;;;;;;;44.33;26.00;;;;;;;;;;5043743;28;20055;-83
2023/02/11 05:38:46;;;;;;;44.42;26.17;;;;;;;;;;5044677;28;20053;-83
2023/02/11 05:41:14;;;;;;;44.75;26.17;;;;;;;;;;5060732;28;20048;-82
2023/02/11 05:43:41;;;;;;;44.45;26.40;;;;;;;;;;5043043;28;20053;-84
2023/02/11 05:46:08;;;;;;;45.15;26.80;;;;;;;;;;5045465;28;20048;-84
2023/02/11 05:48:36;;;;;;;44.63;26.35;;;;;;;;;;5058375;28;20089;-84
2023/02/11 05:51:03;;;;;;;45.28;26.20;;;;;;;;;;5061166;28;20052;-83
2023/02/11 05:53:30;;;;;;;44.22;25.80;;;;;;;;;;5059587;28;20053;-83
2023/02/11 05:55:58;;;;;;;42.72;25.70;;;;;;;;;;5041050;28;20055;-84
2023/02/11 05:58:25;;;;;;;43.30;25.02;;;;;;;;;;5042221;28;20525;-83
2023/02/11 06:00:52;;;;;;;39.92;24.98;;;;;;;;;;5042685;28;20060;-83
2023/02/11 06:03:19;;;;;;;42.47;26.13;;;;;;;;;;5043990;28;20069;-84
2023/02/11 06:05:47;;;;;;;40.63;25.92;;;;;;;;;;5044500;28;20048;-83
2023/02/11 06:08:14;;;;;;;39.55;24.75;;;;;;;;;;5061736;28;20045;-83
2023/02/11 06:10:44;;;;;;;43.38;25.52;;;;;;;;;;5045100;28;20116;-84
2023/02/11 06:13:11;;;;;;;42.75;24.88;;;;;;;;;;5045258;28;20083;-83
2023/02/11 06:15:39;;;;;;;42.55;24.58;;;;;;;;;;5045909;28;20052;-83
2023/02/11 06:18:07;;;;;;;39.50;24.17;;;;;;;;;;5045838;28;20394;-84
2023/02/11 06:20:34;;;;;;;38.67;22.88;;;;;;;;;;5064727;28;20049;-84
2023/02/11 06:23:01;;;;;;;41.00;25.25;;;;;;;;;;5046907;28;20114;-84
2023/02/11 06:25:29;;;;;;;43.42;24.80;;;;;;;;;;5046817;28;20108;-84
2023/02/11 06:27:56;;;;;;;41.50;25.40;;;;;;;;;;5048358;28;20055;-83
2023/02/11 06:30:24;;;;;;;42.67;25.83;;;;;;;;;;5047669;28;20056;-83
2023/02/11 06:32:51;;;;;;;40.38;24.38;;;;;;;;;;5065362;28;20075;-83
2023/02/11 06:35:19;;;;;;;43.03;24.70;;;;;;;;;;5046511;28;20079;-83
2023/02/11 06:37:48;;;;;;;42.10;24.58;;;;;;;;;;5047429;28;20070;-83
2023/02/11 06:40:15;;;;;;;41.08;24.50;;;;;;;;;;5049731;28;20052;-83
2023/02/11 06:42:43;;;;;;;39.97;24.08;;;;;;;;;;5051267;28;20100;-83
2023/02/11 06:45:11;;;;;;;38.38;23.23;;;;;;;;;;5051364;28;20045;-84
2023/02/11 06:47:39;;;;;;;40.22;23.63;;;;;;;;;;5050971;28;20115;-84
2023/02/11 06:50:07;;;;;;;43.83;24.83;;;;;;;;;;5050882;28;20139;-82
2023/02/11 06:52:35;;;;;;;40.25;24.33;;;;;;;;;;5051007;28;20107;-83
2023/02/11 06:55:02;;;;;;;39.90;25.40;;;;;;;;;;5069482;28;20059;-83
2023/02/11 06:57:30;;;;;;;41.80;24.23;;;;;;;;;;5067910;28;20045;-83
2023/02/11 06:59:58;;;;;;;40.95;25.25;;;;;;;;;;5067805;28;20049;-84
2023/02/11 07:02:25;;;;;;;41.33;24.48;;;;;;;;;;5050934;28;20053;-83
2023/02/11 07:04:52;;;;;;;44.17;26.50;;;;;;;;;;5051156;28;20416;-84
2023/02/11 07:07:19;;;;;;;42.67;24.27;;;;;;;;;;5068765;28;20045;-83
2023/02/11 07:09:47;;;;;;;39.63;24.83;;;;;;;;;;5050508;28;20048;-83
2023/02/11 07:12:15;;;;;;;43.53;25.38;;;;;;;;;;5051172;28;20045;-84
2023/02/11 07:14:43;;;;;;;40.08;24.35;;;;;;;;;;5050794;28;20117;-85
2023/02/11 07:17:10;;;;;;;41.58;25.52;;;;;;;;;;5050683;28;20083;-84
2023/02/11 07:19:37;;;;;;;41.88;25.63;;;;;;;;;;5050577;28;20045;-83
2023/02/11 07:22:04;;;;;;;45.90;26.20;;;;;;;;;;5051209;28;20489;-84
2023/02/11 07:24:32;;;;;;;42.00;25.63;;;;;;;;;;5050353;28;20117;-84
2023/02/11 07:26:59;;;;;;;43.67;26.02;;;;;;;;;;5031821;28;20122;-84
2023/02/11 07:29:26;;;;;;;44.70;26.15;;;;;;;;;;5048867;28;20044;-84
2023/02/11 07:31:54;;;;;;;42.50;25.75;;;;;;;;;;5066667;28;20053;-84
2023/02/11 07:34:21;;;;;;;46.20;26.30;;;;;;;;;;5048663;28;20049;-83
2023/02/11 07:36:48;;;;;;;47.28;26.92;;;;;;;;;;5066645;28;20071;-84
2023/02/11 07:39:16;;;;;;;42.92;27.30;;;;;;;;;;5048833;28;20043;-84
2023/02/11 07:41:46;;;;;;;46.13;27.42;;;;;;;;;;5059330;28;20053;-83
2023/02/11 07:44:13;;;;;;;48.15;28.75;;;;;;;;;;5059717;28;20064;-84
2023/02/11 07:46:44;;;;;;;47.70;28.10;;;;;;;;;;5049106;28;20049;-83
2023/02/11 07:49:11;;;;;;;42.80;26.35;;;;;;;;;;5048697;28;20132;-84
2023/02/11 07:51:39;;;;;;;40.25;24.52;;;;;;;;;;5048776;28;20144;-83
2023/02/11 07:54:06;;;;;;;38.08;23.25;;;;;;;;;;5048377;28;20468;-83
2023/02/11 07:56:34;;;;;;;41.30;24.35;;;;;;;;;;5048279;28;20061;-84
2023/02/11 07:59:02;;;;;;;39.92;24.25;;;;;;;;;;5048184;28;20049;-82
2023/02/11 08:01:30;;;;;;;38.78;24.13;;;;;;;;;;5048844;28;20135;-83
2023/02/11 08:03:58;;;;;;;38.88;24.10;;;;;;;;;;5049089;28;20041;-83
2023/02/11 08:06:26;;;;;;;41.83;24.23;;;;;;;;;;5066162;28;20060;-83
2023/02/11 08:08:54;;;;;;;38.85;24.55;;;;;;;;;;5066752;28;20049;-83
2023/02/11 08:11:23;;;;;;;38.00;23.23;;;;;;;;;;5047990;28;20053;-83
2023/02/11 08:13:50;;;;;;;41.50;25.55;;;;;;;;;;5047770;28;20069;-84
2023/02/11 08:16:17;;;;;;;44.10;26.17;;;;;;;;;;5069965;28;20064;-83
2023/02/11 08:18:45;;;;;;;44.55;26.50;;;;;;;;;;5051937;28;20041;-83
2023/02/11 08:21:12;;;;;;;50.38;26.10;;;;;;;;;;5069101;28;20117;-83
2023/02/11 08:23:40;;;;;;;48.88;25.95;;;;;;;;;;5069507;28;20065;-83
2023/02/11 08:26:14;;;;;;;50.42;28.67;;;;;;;;;;5069841;28;20048;-83
2023/02/11 08:28:43;;;;;;;46.45;26.70;;;;;;;;;;5069343;28;20044;-83
2023/02/11 08:31:11;;;;;;;65.63;31.27;;;;;;;;;;5069766;28;20065;-83
2023/02/11 08:33:40;;;;;;;56.08;29.42;;;;;;;;;;5069917;28;20052;-83
2023/02/11 08:36:08;;;;;;;57.60;29.80;;;;;;;;;;5051728;28;20112;-83
2023/02/11 08:38:35;;;;;;;46.13;26.83;;;;;;;;;;5071154;28;20053;-83
2023/02/11 08:41:03;;;;;;;55.15;29.48;;;;;;;;;;5070125;28;20045;-83
2023/02/11 08:43:31;;;;;;;45.35;25.98;;;;;;;;;;5052651;28;20049;-84
2023/02/11 08:45:59;;;;;;;48.35;25.95;;;;;;;;;;5052282;28;20076;-83
2023/02/11 08:48:28;;;;;;;44.90;26.33;;;;;;;;;;5053506;28;20040;-83
2023/02/11 08:50:57;;;;;;;41.60;25.42;;;;;;;;;;5070334;28;20055;-83
2023/02/11 08:53:24;;;;;;;44.45;26.65;;;;;;;;;;5053219;28;20121;-83
2023/02/11 08:55:54;;;;;;;40.15;25.10;;;;;;;;;;5053876;28;20049;-84
2023/02/11 08:58:22;;;;;;;39.00;25.45;;;;;;;;;;5053601;28;20555;-83
2023/02/11 09:00:49;;;;;;;43.95;25.80;;;;;;;;;;5053930;28;20068;-83
2023/02/11 09:03:17;;;;;;;44.33;27.00;;;;;;;;;;5070974;28;20551;-83
2023/02/11 09:05:46;;;;;;;44.63;26.98;;;;;;;;;;5049880;28;20045;-83
2023/02/11 09:08:14;;;;;;;45.03;26.85;;;;;;;;;;5036777;28;20045;-83
2023/02/11 09:10:41;;;;;;;43.60;25.58;;;;;;;;;;5034398;28;20073;-83
2023/02/11 09:13:08;;;;;;;44.88;26.60;;;;;;;;;;5031425;28;20073;-82
2023/02/11 09:15:36;;;;;;;47.50;27.25;;;;;;;;;;5032780;28;20077;-82
2023/02/11 09:18:04;;;;;;;37.90;25.45;;;;;;;;;;5032683;28;20041;-83
2023/02/11 09:20:32;;;;;;;44.72;25.73;;;;;;;;;;5033954;28;20073;-83
2023/02/11 09:22:59;;;;;;;46.33;25.55;;;;;;;;;;5032576;28;20045;-82
2023/02/11 09:25:26;;;;;;;47.47;27.30;;;;;;;;;;5033568;28;20050;-82
2023/02/11 09:27:54;;;;;;;44.08;25.80;;;;;;;;;;5033479;28;20080;-82
2023/02/11 09:30:21;;;;;;;44.28;27.77;;;;;;;;;;5036133;28;20053;-83
2023/02/11 09:32:48;;;;;;;41.53;25.65;;;;;;;;;;5057698;28;20026;-83
2023/02/11 09:35:16;;;;;;;41.00;24.48;;;;;;;;;;5042172;28;20044;-82
2023/02/11 09:37:44;;;;;;;38.15;24.63;;;;;;;;;;5038652;28;20077;-82
2023/02/11 09:40:12;;;;;;;40.90;25.33;;;;;;;;;;5031622;28;20069;-83
2023/02/11 09:42:58;;;;;;;41.08;23.95;;;;;;;;;;5048116;28;20051;-82
2023/02/11 09:45:30;;;;;;;43.97;26.05;;;;;;;;;;5038535;28;20064;-83
2023/02/11 09:47:57;;;;;;;47.67;26.63;;;;;;;;;;5051408;28;20052;-82
2023/02/11 09:50:30;;;;;;;42.03;25.20;;;;;;;;;;5068588;28;20045;-83
2023/02/11 09:53:00;;;;;;;46.90;25.90;;;;;;;;;;5050253;28;20086;-82
2023/02/11 09:55:29;;;;;;;44.42;25.85;;;;;;;;;;5051266;28;20394;-83
2023/02/11 09:57:57;;;;;;;41.38;24.90;;;;;;;;;;5068062;28;20060;-83
2023/02/11 10:00:31;;;;;;;41.78;23.58;;;;;;;;;;5034851;28;20052;-82
2023/02/11 10:03:17;;;;;;;38.65;24.70;;;;;;;;;;5049742;28;20049;-83
2023/02/11 10:06:10;;;;;;;42.88;24.75;;;;;;;;;;5050134;28;20041;-82
2023/02/11 10:08:51;;;;;;;38.55;24.05;;;;;;;;;;5067235;28;20475;-83
2023/02/11 10:11:34;;;;;;;43.63;26.80;;;;;;;;;;5050162;28;20051;-83
2023/02/11 10:14:23;;;;;;;46.67;25.05;;;;;;;;;;5067886;28;20114;-83
2023/02/11 10:16:58;;;;;;;44.20;26.83;;;;;;;;;;5050893;28;20079;-82
2023/02/11 10:19:26;;;;;;;43.15;25.70;;;;;;;;;;5050342;28;20145;-82
2023/02/11 10:22:13;;;;;;;40.80;24.90;;;;;;;;;;5051169;28;20056;-82
2023/02/11 10:24:43;;;;;;;45.53;25.48;;;;;;;;;;5050570;28;20108;-81
2023/02/11 10:27:20;;;;;;;42.17;25.38;;;;;;;;;;5067209;28;20056;-83
2023/02/11 10:29:53;;;;;;;42.50;25.75;;;;;;;;;;5068842;28;20071;-83
2023/02/11 10:32:29;;;;;;;45.42;26.67;;;;;;;;;;5067487;28;20108;-82
2023/02/11 10:35:00;;;;;;;41.70;24.90;;;;;;;;;;5067264;28;20075;-83
2023/02/11 10:37:27;;;;;;;43.22;23.02;;;;;;;;;;5068119;28;20452;-83
2023/02/11 10:39:54;;;;;;;38.42;23.85;;;;;;;;;;5042781;28;20102;-82
2023/02/11 10:42:22;;;;;;;40.03;23.55;;;;;;;;;;5065278;28;20059;-82
2023/02/11 10:45:00;;;;;;;39.97;24.67;;;;;;;;;;5066854;28;20140;-82
2023/02/11 10:47:31;;;;;;;38.42;23.35;;;;;;;;;;5049622;28;20049;-82
2023/02/11 10:50:02;;;;;;;37.13;22.45;;;;;;;;;;5050037;28;20083;-83
2023/02/11 10:52:30;;;;;;;37.97;22.83;;;;;;;;;;5050365;28;20048;-83
2023/02/11 10:55:17;;;;;;;35.05;21.95;;;;;;;;;;5049537;28;20400;-82
2023/02/11 10:57:55;;;;;;;35.90;21.85;;;;;;;;;;5043730;28;20045;-82
2023/02/11 11:00:27;;;;;;;36.47;22.20;;;;;;;;;;5049145;28;20044;-82
2023/02/11 11:03:01;;;;;;;32.67;20.95;;;;;;;;;;5049465;28;20049;-82
2023/02/11 11:05:37;;;;;;;38.10;22.42;;;;;;;;;;5048805;28;20052;-82
2023/02/11 11:08:08;;;;;;;30.58;20.73;;;;;;;;;;5048879;28;20052;-82
2023/02/11 11:10:43;;;;;;;35.30;20.60;;;;;;;;;;5065945;28;20497;-82
2023/02/11 11:13:28;;;;;;;30.05;19.27;;;;;;;;;;5066989;28;20064;-82
2023/02/11 11:16:14;;;;;;;28.10;18.38;;;;;;;;;;5066825;28;20076;-83
2023/02/11 11:18:42;;;;;;;26.23;18.10;;;;;;;;;;5066491;28;20060;-82
2023/02/11 11:21:23;;;;;;;26.85;17.77;;;;;;;;;;5066862;28;20080;-83
2023/02/11 11:23:54;;;;;;;22.73;16.33;;;;;;;;;;5067163;28;20056;-82
2023/02/11 11:26:21;;;;;;;25.85;16.25;;;;;;;;;;5059951;28;20033;-81
2023/02/11 11:28:49;;;;;;;26.50;16.73;;;;;;;;;;5061160;28;20036;-82
2023/02/11 11:31:39;;;;;;;20.42;14.18;;;;;;;;;;5068122;28;20060;-82
2023/02/11 11:34:18;;;;;;;19.92;14.35;;;;;;;;;;5064478;28;20052;-83
2023/02/11 11:36:45;;;;;;;24.88;14.73;;;;;;;;;;5048331;28;20076;-83
2023/02/11 11:39:18;;;;;;;23.58;16.17;;;;;;;;;;5048167;28;20140;-82
2023/02/11 11:42:02;;;;;;;23.65;15.77;;;;;;;;;;5065416;28;20416;-82
2023/02/11 11:44:31;;;;;;;24.00;15.70;;;;;;;;;;5032227;28;20140;-82
2023/02/11 11:47:16;;;;;;;20.92;15.30;;;;;;;;;;5065282;28;20139;-82
2023/02/11 11:49:47;;;;;;;19.95;14.82;;;;;;;;;;5048293;28;20454;-83
2023/02/11 11:52:29;;;;;;;21.77;15.30;;;;;;;;;;5051837;28;20044;-82
2023/02/11 11:55:04;;;;;;;22.25;15.43;;;;;;;;;;5051313;28;20511;-82
2023/02/11 11:57:35;;;;;;;25.40;16.45;;;;;;;;;;5069097;28;20432;-82
2023/02/11 12:00:03;;;;;;;21.65;16.08;;;;;;;;;;5069289;28;20075;-83
2023/02/11 12:03:07;;;;;;;25.60;17.98;;;;;;;;;;5052677;28;20104;-82
2023/02/11 12:05:38;;;;;;;21.48;15.10;;;;;;;;;;4993595;28;20058;-82
2023/02/11 12:08:18;;;;;;;20.20;14.77;;;;;;;;;;5042860;28;20045;-82
2023/02/11 12:10:49;;;;;;;18.88;14.40;;;;;;;;;;5053058;28;20113;-84
2023/02/11 12:13:24;;;;;;;18.70;14.20;;;;;;;;;;5072736;28;20057;-82
2023/02/11 12:16:14;;;;;;;21.27;14.23;;;;;;;;;;5050865;28;20076;-83
2023/02/11 12:19:01;;;;;;;19.75;13.73;;;;;;;;;;5069980;28;20120;-82
2023/02/11 12:21:31;;;;;;;20.90;13.57;;;;;;;;;;5052962;28;20084;-83
2023/02/11 12:24:28;;;;;;;19.42;13.75;;;;;;;;;;5068208;28;20079;-82
2023/02/11 12:27:08;;;;;;;22.40;13.70;;;;;;;;;;5054063;28;20056;-81
2023/02/11 12:29:41;;;;;;;20.77;14.05;;;;;;;;;;5055765;28;20108;-83
2023/02/11 12:32:08;;;;;;;18.27;12.77;;;;;;;;;;5069916;28;20113;-82
2023/02/11 12:34:48;;;;;;;20.70;13.90;;;;;;;;;;5053159;28;20076;-83
2023/02/11 12:37:22;;;;;;;20.77;13.85;;;;;;;;;;5070931;28;20073;-83
2023/02/11 12:39:52;;;;;;;20.13;13.50;;;;;;;;;;5060844;28;20124;-82
2023/02/11 12:45:27;;;;;;;20.85;13.32;;;;;;;;;;5051551;28;20052;-83
2023/02/11 12:48:21;;;;;;;21.15;13.52;;;;;;;;;;5034998;28;20100;-81
2023/02/11 12:50:55;;;;;;;22.35;14.27;;;;;;;;;;5032719;28;20049;-81
2023/02/11 12:53:47;;;;;;;21.70;14.50;;;;;;;;;;5036788;28;20069;-82
2023/02/11 12:56:18;;;;;;;20.08;13.32;;;;;;;;;;5036349;28;20060;-82
2023/02/11 12:58:47;;;;;;;21.33;13.32;;;;;;;;;;5035508;28;20095;-82
2023/02/11 13:01:19;;;;;;;19.90;13.68;;;;;;;;;;5032090;28;20056;-82
2023/02/11 13:03:50;;;;;;;21.30;13.50;;;;;;;;;;5034524;28;20049;-82
2023/02/11 13:06:20;;;;;;;26.00;13.75;;;;;;;;;;5034866;28;20132;-82
2023/02/11 13:08:57;;;;;;;21.13;13.63;;;;;;;;;;5051583;28;20076;-83
2023/02/11 13:11:27;;;;;;;20.17;13.63;;;;;;;;;;5051365;28;20132;-83
2023/02/11 13:14:01;;;;;;;20.08;13.52;;;;;;;;;;5049362;28;20528;-81
2023/02/11 13:16:35;;;;;;;21.23;12.95;;;;;;;;;;5053789;28;20057;-83
2023/02/11 13:19:06;;;;;;;18.17;12.65;;;;;;;;;;5038958;28;20041;-82
2023/02/11 13:21:54;;;;;;;19.85;13.52;;;;;;;;;;5051615;28;20073;-83
2023/02/11 13:24:28;;;;;;;20.95;14.35;;;;;;;;;;5044043;28;20519;-83
2023/02/11 13:27:07;;;;;;;19.77;13.27;;;;;;;;;;5046195;28;20147;-82
2023/02/11 13:29:38;;;;;;;19.80;13.40;;;;;;;;;;5045756;28;20045;-83
2023/02/11 13:32:07;;;;;;;21.08;13.48;;;;;;;;;;5031888;28;20117;-84
2023/02/11 13:34:41;;;;;;;18.92;13.40;;;;;;;;;;5042269;28;20049;-83
2023/02/11 13:37:28;;;;;;;19.33;13.07;;;;;;;;;;5025926;28;20516;-83
2023/02/11 13:40:04;;;;;;;20.10;12.70;;;;;;;;;;5046406;28;20046;-83
2023/02/11 13:42:33;;;;;;;19.40;12.63;;;;;;;;;;5045810;28;20045;-83
2023/02/11 13:45:01;;;;;;;20.42;12.95;;;;;;;;;;5029605;28;20049;-83
2023/02/11 13:47:34;;;;;;;21.88;13.63;;;;;;;;;;5027800;28;20084;-83
2023/02/11 13:50:05;;;;;;;21.67;12.57;;;;;;;;;;5029767;28;20113;-83
2023/02/11 13:52:36;;;;;;;18.58;12.15;;;;;;;;;;5028036;28;20049;-83
2023/02/11 13:55:14;;;;;;;16.75;12.30;;;;;;;;;;5046078;28;20068;-83
2023/02/11 13:57:41;;;;;;;19.42;13.48;;;;;;;;;;5047149;28;20060;-83
2023/02/11 14:00:28;;;;;;;26.95;13.40;;;;;;;;;;5045799;28;20060;-83
2023/02/11 14:08:59;;;;;;;19.45;12.18;;;;;;;;;;5046638;28;20049;-83
2023/02/11 14:11:42;;;;;;;18.58;12.70;;;;;;;;;;5028785;28;20100;-83
2023/02/11 14:14:15;;;;;;;19.85;13.13;;;;;;;;;;5026944;28;20537;-83
2023/02/11 14:17:01;;;;;;;18.23;12.77;;;;;;;;;;5013140;28;20053;-82
2023/02/11 14:19:45;;;;;;;21.27;13.50;;;;;;;;;;5028231;28;20141;-83
2023/02/11 14:22:15;;;;;;;18.23;13.10;;;;;;;;;;5047046;28;20045;-83
2023/02/11 14:24:53;;;;;;;17.73;12.20;;;;;;;;;;5027234;28;20053;-83
2023/02/11 14:27:27;;;;;;;19.95;12.18;;;;;;;;;;5045255;28;20072;-83
2023/02/11 14:29:54;;;;;;;;;;;;;;;;;;5028598;28;20136;-83
2023/02/11 14:32:33;;;;;;;17.05;11.75;;;;;;;;;;5029623;28;19921;-83
2023/02/11 14:35:14;;;;;;;17.10;12.18;;;;;;;;;;5029021;28;20052;-83
2023/02/11 14:37:46;;;;;;;16.65;11.75;;;;;;;;;;5046472;28;20077;-82
2023/02/11 14:40:27;;;;;;;17.17;12.00;;;;;;;;;;5028325;28;20053;-83
2023/02/11 14:42:54;;;;;;;19.77;12.23;;;;;;;;;;5045438;28;20049;-83
2023/02/11 14:45:24;;;;;;;18.95;12.40;;;;;;;;;;5044863;28;20128;-83
2023/02/11 14:48:02;;;;;;;17.83;12.68;;;;;;;;;;5027576;28;20128;-84
2023/02/11 14:50:47;;;;;;;19.23;11.70;;;;;;;;;;5027456;28;20057;-83